Daisinmaru No.11 — JK5352 — position and weather

sailwx.info

Track history (hours):
 
Tides and Currents Weather Stations Pressure Air Temp Water Temp Dewpoint Dewpoint Depression Visibility Wind Speed Wind Dir Waves Ship Positions

Daisinmaru No.11

Last reported at 2015-Mar-27 08:25 UTC. Time now 2015-Mar-27 13:14 UTC.
Position N 35°27' E 139°60'.

Length 52 m; draft 5.2 m.

Type: Cargo ship. MMSI: 431000667.

Date/timePositionNaut miles runAvg speedWind from/ knotsBaromVisibWave heightAir tempDewpointWater temp
2015-Mar-27 08:25N 35°27' E 139°60'3 3.0
2015-Mar-27 07:33N 35°29' E 139°57'9 9.5
2015-Mar-27 06:33N 35°30' E 139°46'3 2.8
2015-Mar-27 05:33N 35°29' E 139°43'0 0.0
2015-Mar-27 04:33N 35°29' E 139°43'0 0.0
2015-Mar-27 03:33N 35°29' E 139°43'9 8.7
2015-Mar-27 02:33N 35°30' E 139°53'6 5.7
2015-Mar-27 01:33N 35°27' E 139°60'0 0.0
2015-Mar-27 00:33N 35°27' E 139°60'0 0.0
2015-Mar-26 05:33N 35°27' E 139°60'0 0.0
2015-Mar-26 04:33N 35°27' E 139°60'0 0.1
2015-Mar-26 03:33N 35°27' E 139°60'7 7.0
2015-Mar-26 02:33N 35°30' E 139°52'7 7.2
2015-Mar-26 01:33N 35°29' E 139°43'0 0.0
2015-Mar-26 00:33N 35°29' E 139°43'0 0.0
2015-Mar-25 23:33N 35°29' E 139°43'5 4.8
2015-Mar-25 22:33N 35°30' E 139°49'9 8.9
2015-Mar-25 21:33N 35°28' E 139°59'  
Track history (hours):
 
Tides and Currents Weather Stations Pressure Air Temp Water Temp Dewpoint Dewpoint Depression Visibility Wind Speed Wind Dir Waves Ship Positions

Daisinmaru No.11

Last reported at 2015-Mar-27 08:25 UTC. Time now 2015-Mar-27 13:14 UTC.
Position N 35°27' E 139°60'.

Length 52 m; draft 5.2 m.

Type: Cargo ship. MMSI: 431000667.

Date/timePositionNaut miles runAvg speedWind from/ knotsBaromVisibWave heightAir tempDewpointWater temp
2015-Mar-27 08:25N 35°27' E 139°60'3 3.0
2015-Mar-27 07:33N 35°29' E 139°57'9 9.5
2015-Mar-27 06:33N 35°30' E 139°46'3 2.8
2015-Mar-27 05:33N 35°29' E 139°43'0 0.0
2015-Mar-27 04:33N 35°29' E 139°43'0 0.0
2015-Mar-27 03:33N 35°29' E 139°43'9 8.7
2015-Mar-27 02:33N 35°30' E 139°53'6 5.7
2015-Mar-27 01:33N 35°27' E 139°60'0 0.0
2015-Mar-27 00:33N 35°27' E 139°60'0 0.0
2015-Mar-26 05:33N 35°27' E 139°60'0 0.0
2015-Mar-26 04:33N 35°27' E 139°60'0 0.1
2015-Mar-26 03:33N 35°27' E 139°60'7 7.0
2015-Mar-26 02:33N 35°30' E 139°52'7 7.2
2015-Mar-26 01:33N 35°29' E 139°43'0 0.0
2015-Mar-26 00:33N 35°29' E 139°43'0 0.0
2015-Mar-25 23:33N 35°29' E 139°43'5 4.8
2015-Mar-25 22:33N 35°30' E 139°49'9 8.9
2015-Mar-25 21:33N 35°28' E 139°59'  

Dump ship's entire track history